createdAt,value
2023-05-14T00:04:36.728Z,100808.73
2023-05-14T00:09:40.376Z,100806.77
2023-05-14T00:14:43.227Z,100808.44
2023-05-14T00:19:46.051Z,100812.02
2023-05-14T00:24:48.615Z,100815.14
2023-05-14T00:29:51.260Z,100816.92
2023-05-14T00:34:53.863Z,100819.52
2023-05-14T00:39:58.159Z,100813.92
2023-05-14T00:45:00.784Z,100810.38
2023-05-14T00:50:04.019Z,100811.24
2023-05-14T00:55:07.681Z,100806.38
2023-05-14T01:00:11.072Z,100803.19
2023-05-14T01:05:14.341Z,100800.55
2023-05-14T01:10:29.706Z,100795.24
2023-05-14T01:15:35.434Z,100798.64
2023-05-14T01:20:38.162Z,100792.20
2023-05-14T01:25:41.048Z,100791.11
2023-05-14T01:30:57.036Z,100787.24
2023-05-14T01:36:00.004Z,100790.81
2023-05-14T01:41:03.198Z,100790.91
2023-05-14T01:46:05.821Z,100791.27
2023-05-14T01:51:08.644Z,100788.00
2023-05-14T01:56:11.253Z,100786.39
2023-05-14T02:01:13.911Z,100783.55
2023-05-14T02:06:16.532Z,100786.46
2023-05-14T02:11:19.072Z,100788.44
2023-05-14T02:16:21.700Z,100786.80
2023-05-14T02:21:24.433Z,100788.40
2023-05-14T02:26:27.191Z,100782.73
2023-05-14T02:31:30.313Z,100783.44
2023-05-14T02:36:33.113Z,100783.56
2023-05-14T02:41:35.860Z,100783.54
2023-05-14T02:46:38.392Z,100787.32
2023-05-14T02:51:40.970Z,100781.36
2023-05-14T02:56:43.772Z,100774.64
2023-05-14T03:01:46.438Z,100776.10
2023-05-14T03:06:49.405Z,100773.24
2023-05-14T03:11:52.007Z,100767.64
2023-05-14T03:16:54.644Z,100767.42
2023-05-14T03:21:57.192Z,100765.68
2023-05-14T03:26:59.700Z,100764.89
2023-05-14T03:32:02.248Z,100762.73
2023-05-14T03:37:05.479Z,100761.63
2023-05-14T03:42:08.133Z,100757.36
2023-05-14T03:47:11.246Z,100756.27
2023-05-14T03:52:13.823Z,100756.98
2023-05-14T03:57:16.463Z,100762.50
2023-05-14T04:02:19.191Z,100762.73
2023-05-14T04:07:21.981Z,100758.50
2023-05-14T04:12:24.595Z,100757.45
2023-05-14T04:17:27.250Z,100759.75
2023-05-14T04:22:29.763Z,100752.58
2023-05-14T04:27:33.677Z,100750.63
2023-05-14T04:32:36.613Z,100753.42
2023-05-14T04:37:39.237Z,100754.78
2023-05-14T04:42:42.420Z,100750.02
2023-05-14T04:47:46.718Z,100745.95
2023-05-14T04:52:49.355Z,100738.43
2023-05-14T04:57:51.967Z,100732.80
2023-05-14T05:02:54.722Z,100735.58
2023-05-14T05:07:57.387Z,100735.65
2023-05-14T05:13:00.421Z,100735.73
2023-05-14T05:18:06.368Z,100739.64
2023-05-14T05:23:09.013Z,100737.46
2023-05-14T05:28:11.958Z,100734.39
2023-05-14T05:33:14.692Z,100730.45
2023-05-14T05:38:18.319Z,100733.96
2023-05-14T05:43:21.006Z,100732.71
2023-05-14T05:48:23.616Z,100732.53
2023-05-14T05:53:26.196Z,100734.70
2023-05-14T05:58:29.071Z,100738.98
2023-05-14T06:03:33.946Z,100731.45
2023-05-14T06:08:36.529Z,100733.04
2023-05-14T06:13:39.168Z,100732.67
2023-05-14T06:18:41.718Z,100732.45
2023-05-14T06:23:44.581Z,100726.13
2023-05-14T06:28:48.397Z,100723.44
2023-05-14T06:33:52.278Z,100724.10
2023-05-14T06:38:54.847Z,100724.27
2023-05-14T06:43:57.764Z,100720.77
2023-05-14T06:49:00.482Z,100720.89
2023-05-14T06:54:04.474Z,100716.46
2023-05-14T06:59:08.139Z,100716.92
2023-05-14T07:04:11.045Z,100713.93
2023-05-14T07:09:13.719Z,100708.95
2023-05-14T07:14:16.430Z,100709.71
2023-05-14T07:19:19.141Z,100708.82
2023-05-14T07:24:21.973Z,100711.55
2023-05-14T07:29:25.433Z,100705.58
2023-05-14T07:34:28.008Z,100703.10
2023-05-14T07:39:30.935Z,100695.27
2023-05-14T07:44:33.499Z,100692.56
2023-05-14T07:49:36.679Z,100692.36
2023-05-14T07:54:41.635Z,100691.80
2023-05-14T07:59:44.396Z,100686.21
2023-05-14T08:04:46.927Z,100677.59
2023-05-14T08:09:49.512Z,100678.04
2023-05-14T08:14:53.447Z,100677.17
2023-05-14T08:19:55.996Z,100678.02
2023-05-14T08:24:59.597Z,100673.53
2023-05-14T08:30:02.188Z,100671.61
2023-05-14T08:35:05.321Z,100664.35
2023-05-14T08:40:09.359Z,100663.20
2023-05-14T08:45:19.832Z,100658.86
2023-05-14T08:50:23.736Z,100654.70
2023-05-14T08:55:26.786Z,100651.02
2023-05-14T09:00:29.517Z,100643.73
2023-05-14T09:05:33.351Z,100646.15
2023-05-14T09:10:36.241Z,100638.68
2023-05-14T09:15:41.314Z,100633.81
2023-05-14T09:20:44.180Z,100627.63
2023-05-14T09:25:48.412Z,100627.73
2023-05-14T09:30:52.138Z,100625.17
2023-05-14T09:36:01.805Z,100617.77
2023-05-14T09:41:04.528Z,100614.98
2023-05-14T09:46:07.086Z,100607.71
2023-05-14T09:51:11.508Z,100602.84
2023-05-14T09:56:14.740Z,100591.52
2023-05-14T10:01:20.076Z,100594.20
2023-05-14T10:06:28.490Z,100591.65
2023-05-14T10:11:34.213Z,100588.14
2023-05-14T10:16:51.494Z,100578.86
2023-05-14T10:22:04.594Z,100570.94
2023-05-14T10:27:07.647Z,100569.52
2023-05-14T10:32:13.178Z,100567.29
2023-05-14T10:37:18.151Z,100561.17
2023-05-14T10:42:32.444Z,100555.73
2023-05-14T10:47:40.006Z,100548.21
2023-05-14T10:52:44.083Z,100543.83
2023-05-14T10:57:46.974Z,100531.23
2023-05-14T11:02:49.852Z,100521.60
2023-05-14T11:07:56.760Z,100519.44
2023-05-14T11:12:59.589Z,100513.70
2023-05-14T11:18:02.246Z,100510.11
2023-05-14T11:23:05.084Z,100503.39
2023-05-14T11:28:08.323Z,100501.01
2023-05-14T11:33:11.490Z,100490.23
2023-05-14T11:38:18.085Z,100482.40
2023-05-14T11:43:23.734Z,100480.98
2023-05-14T11:48:26.450Z,100482.39
2023-05-14T11:53:31.112Z,100483.77
2023-05-14T11:58:33.999Z,100474.30
2023-05-14T12:03:36.918Z,100465.44
2023-05-14T12:08:40.020Z,100461.91
2023-05-14T12:13:42.569Z,100456.09
2023-05-14T12:18:45.273Z,100449.78
2023-05-14T12:23:48.160Z,100440.98
2023-05-14T12:28:50.935Z,100431.48
2023-05-14T12:33:53.476Z,100426.33
2023-05-14T12:39:01.710Z,100423.80
2023-05-14T12:44:04.837Z,100418.02
2023-05-14T12:49:07.774Z,100412.65
2023-05-14T12:54:11.238Z,100411.93
2023-05-14T12:59:13.810Z,100435.17
2023-05-14T13:04:16.481Z,100411.21
2023-05-14T13:09:19.223Z,100399.70
2023-05-14T13:14:21.897Z,100396.66
2023-05-14T13:19:24.685Z,100380.92
2023-05-14T13:24:27.857Z,100368.16
2023-05-14T13:29:31.545Z,100362.20
2023-05-14T13:34:34.144Z,100362.15
2023-05-14T13:39:36.738Z,100357.61
2023-05-14T13:44:39.400Z,100353.23
2023-05-14T13:49:42.902Z,100346.39
2023-05-14T13:54:45.929Z,100335.26
2023-05-14T13:59:49.093Z,100332.89
2023-05-14T14:04:51.763Z,100333.15
2023-05-14T14:09:54.358Z,100326.88
2023-05-14T14:14:57.114Z,100321.39
2023-05-14T14:19:59.649Z,100313.75
2023-05-14T14:25:02.883Z,100296.61
2023-05-14T14:30:15.489Z,100289.79
2023-05-14T14:35:19.792Z,100288.64
2023-05-14T14:40:23.910Z,100281.03
2023-05-14T14:45:26.573Z,100279.27
2023-05-14T14:50:29.216Z,100277.63
2023-05-14T14:55:32.024Z,100270.80
2023-05-14T15:00:34.902Z,100271.73
2023-05-14T15:05:37.749Z,100271.70
2023-05-14T15:10:41.707Z,100266.34
2023-05-14T15:15:44.517Z,100255.56
2023-05-14T15:20:47.191Z,100246.88
2023-05-14T15:25:50.071Z,100246.69
2023-05-14T15:30:52.909Z,100238.84
2023-05-14T15:35:57.621Z,100235.45
2023-05-14T15:41:00.575Z,100237.19
2023-05-14T15:46:03.379Z,100242.03
2023-05-14T15:51:06.271Z,100232.63
2023-05-14T15:56:08.996Z,100228.48
2023-05-14T16:01:11.603Z,100226.65
2023-05-14T16:06:14.237Z,100223.86
2023-05-14T16:11:17.218Z,100218.38
2023-05-14T16:16:22.819Z,100212.94
2023-05-14T16:21:25.795Z,100211.37
2023-05-14T16:26:29.230Z,100202.02
2023-05-14T16:31:32.074Z,100192.35
2023-05-14T16:36:34.846Z,100186.01
2023-05-14T16:41:37.511Z,100180.30
2023-05-14T16:46:40.338Z,100176.71
2023-05-14T16:51:43.885Z,100172.70
2023-05-14T16:56:49.161Z,100167.09
2023-05-14T17:01:51.860Z,100162.35
2023-05-14T17:06:54.541Z,100162.48
2023-05-14T17:11:57.214Z,100162.76
2023-05-14T17:16:59.910Z,100160.73
2023-05-14T17:22:05.763Z,100162.13
2023-05-14T17:27:08.653Z,100161.01
2023-05-14T17:32:11.438Z,100164.18
2023-05-14T17:37:14.264Z,100162.39
2023-05-14T17:42:17.210Z,100162.52
2023-05-14T17:47:20.697Z,100160.51
2023-05-14T17:52:23.414Z,100154.31
2023-05-14T17:57:26.548Z,100150.85
2023-05-14T18:02:29.211Z,100150.49
2023-05-14T18:07:32.334Z,100155.21
2023-05-14T18:12:34.941Z,100158.20
2023-05-14T18:17:37.775Z,100160.69
2023-05-14T18:22:40.719Z,100162.93
2023-05-14T18:27:45.053Z,100158.24
2023-05-14T18:32:47.984Z,100156.21
2023-05-14T18:37:50.864Z,100159.30
2023-05-14T18:42:54.026Z,100156.00
2023-05-14T18:47:57.006Z,100157.89
2023-05-14T18:52:59.703Z,100161.01
2023-05-14T18:58:03.062Z,100162.28
2023-05-14T19:03:06.203Z,100167.65
2023-05-14T19:08:08.902Z,100167.30
2023-05-14T19:13:11.831Z,100167.77
2023-05-14T19:18:15.802Z,100167.20
2023-05-14T19:23:18.780Z,100158.15
2023-05-14T19:28:21.415Z,100161.58
2023-05-14T19:33:26.029Z,100159.87
2023-05-14T19:38:29.586Z,100158.58
2023-05-14T19:43:32.235Z,100158.45
2023-05-14T19:48:36.155Z,100152.25
2023-05-14T19:53:39.127Z,100150.21
2023-05-14T19:58:41.777Z,100146.39
2023-05-14T20:03:44.507Z,100143.31
2023-05-14T20:08:47.121Z,100146.29
2023-05-14T20:13:49.688Z,100141.83
2023-05-14T20:18:53.500Z,100134.54
2023-05-14T20:23:56.097Z,100136.96
2023-05-14T20:28:58.722Z,100135.27
2023-05-14T20:34:02.099Z,100135.98
2023-05-14T20:39:06.175Z,100132.77
2023-05-14T20:44:08.920Z,100128.09
2023-05-14T20:49:11.507Z,100132.96
2023-05-14T20:54:14.026Z,100128.95
2023-05-14T20:59:16.708Z,100127.61
2023-05-14T21:04:19.561Z,100125.63
2023-05-14T21:09:23.673Z,100114.09
2023-05-14T21:14:26.489Z,100109.05
2023-05-14T21:19:29.038Z,100112.09
2023-05-14T21:24:31.635Z,100115.39
2023-05-14T21:29:34.749Z,100106.92
2023-05-14T21:34:37.440Z,100098.30
2023-05-14T21:39:40.093Z,100096.13
2023-05-14T21:44:43.904Z,100094.35
2023-05-14T21:49:46.537Z,100091.29
2023-05-14T21:54:49.079Z,100090.52
2023-05-14T21:59:51.613Z,100083.53
2023-05-14T22:04:54.271Z,100078.88
2023-05-14T22:09:56.894Z,100076.49
2023-05-14T22:14:59.508Z,100070.20
2023-05-14T22:20:05.586Z,100070.41
2023-05-14T22:25:08.847Z,100066.61
2023-05-14T22:30:11.875Z,100060.95
2023-05-14T22:35:14.529Z,100057.59
2023-05-14T22:40:17.137Z,100054.70
2023-05-14T22:45:19.990Z,100050.59
2023-05-14T22:50:22.585Z,100048.45
2023-05-14T22:55:25.490Z,100041.11
2023-05-14T23:00:28.283Z,100037.84
2023-05-14T23:05:31.058Z,100026.83
2023-05-14T23:10:35.403Z,100020.27
2023-05-14T23:15:38.798Z,100022.13
2023-05-14T23:20:41.515Z,100015.20
2023-05-14T23:25:44.120Z,100008.15
2023-05-14T23:30:46.658Z,99995.95
2023-05-14T23:35:49.369Z,99989.02
2023-05-14T23:40:51.900Z,99977.51
2023-05-14T23:45:54.590Z,99967.02
2023-05-14T23:50:57.168Z,99963.63
2023-05-14T23:55:59.955Z,99955.88
